createdAt,value
2022-11-23T00:02:02.971Z,9.26
2022-11-23T00:04:29.712Z,9.81
2022-11-23T00:06:56.793Z,9.48
2022-11-23T00:09:24.415Z,9.76
2022-11-23T00:11:51.606Z,9.03
2022-11-23T00:14:18.910Z,9.34
2022-11-23T00:16:45.783Z,9.41
2022-11-23T00:19:12.807Z,9.77
2022-11-23T00:21:43.747Z,9.49
2022-11-23T00:24:10.428Z,9.39
2022-11-23T00:37:49.550Z,9.16
2022-11-23T00:40:16.408Z,9.05
2022-11-23T00:42:44.024Z,9.18
2022-11-23T00:45:11.151Z,9.26
2022-11-23T00:47:37.985Z,9.08
2022-11-23T00:50:05.654Z,8.74
2022-11-23T00:52:33.228Z,8.63
2022-11-23T00:55:00.406Z,9.17
2022-11-23T00:57:27.255Z,8.90
2022-11-23T00:59:58.148Z,9.64
2022-11-23T01:02:27.902Z,9.21
2022-11-23T01:04:55.174Z,8.93
2022-11-23T01:07:22.329Z,8.63
2022-11-23T01:09:49.496Z,8.89
2022-11-23T01:12:18.454Z,9.38
2022-11-23T01:14:45.270Z,8.86
2022-11-23T01:17:12.833Z,9.14
2022-11-23T01:19:39.572Z,9.53
2022-11-23T01:22:07.433Z,10.09
2022-11-23T01:24:34.316Z,10.11
2022-11-23T01:27:01.069Z,9.56
2022-11-23T01:29:27.993Z,9.50
2022-11-23T01:31:58.727Z,9.49
2022-11-23T01:34:27.378Z,9.39
2022-11-23T01:36:54.699Z,9.46
2022-11-23T01:39:21.800Z,9.52
2022-11-23T01:41:50.550Z,9.35
2022-11-23T01:44:17.416Z,8.73
2022-11-23T01:46:44.587Z,9.48
2022-11-23T01:49:11.773Z,9.72
2022-11-23T01:51:38.503Z,9.23
2022-11-23T01:54:05.492Z,9.10
2022-11-23T01:56:33.348Z,8.79
2022-11-23T02:01:29.693Z,8.87
2022-11-23T02:03:56.559Z,8.91
2022-11-23T02:06:23.397Z,8.41
2022-11-23T02:08:50.490Z,8.57
2022-11-23T02:11:18.085Z,8.82
2022-11-23T02:13:46.963Z,9.43
2022-11-23T02:16:13.639Z,9.40
2022-11-23T02:18:40.911Z,9.16
2022-11-23T02:23:55.006Z,10.69
2022-11-23T02:26:27.025Z,10.94
2022-11-23T02:28:58.374Z,11.23
2022-11-23T02:31:31.899Z,11.47
2022-11-23T02:37:14.938Z,11.61
2022-11-23T02:39:43.226Z,11.51
2022-11-23T02:42:09.953Z,11.69
2022-11-23T02:44:37.899Z,11.83
2022-11-23T02:47:05.481Z,11.83
2022-11-23T02:49:32.422Z,11.98
2022-11-23T02:51:59.649Z,11.86
2022-11-23T02:54:31.510Z,12.04
2022-11-23T02:56:59.778Z,11.58
2022-11-23T03:01:56.531Z,11.78
2022-11-23T03:04:27.891Z,11.80
2022-11-23T03:06:55.386Z,11.80
2022-11-23T03:09:23.735Z,11.74
2022-11-23T03:11:50.607Z,11.76
2022-11-23T03:14:17.674Z,11.82
2022-11-23T03:16:49.261Z,11.83
2022-11-23T03:19:16.529Z,11.36
2022-11-23T03:21:44.176Z,10.29
2022-11-23T03:24:13.286Z,10.20
2022-11-23T03:26:45.867Z,10.56
2022-11-23T03:29:15.628Z,9.38
2022-11-23T03:31:42.269Z,9.69
2022-11-23T03:36:38.613Z,9.65
2022-11-23T03:39:05.446Z,8.94
2022-11-23T03:41:32.704Z,9.28
2022-11-23T03:43:59.495Z,10.01
2022-11-23T03:46:28.120Z,10.40
2022-11-23T03:48:57.025Z,10.80
2022-11-23T03:51:26.029Z,10.64
2022-11-23T03:53:55.100Z,9.94
2022-11-23T03:56:24.365Z,8.74
2022-11-23T03:58:51.146Z,8.19
2022-11-23T04:01:19.147Z,8.18
2022-11-23T04:06:47.616Z,7.90
2022-11-23T04:09:16.528Z,7.24
2022-11-23T04:11:43.235Z,7.12
2022-11-23T04:14:29.945Z,7.47
2022-11-23T04:17:15.822Z,8.94
2022-11-23T04:19:43.191Z,9.67
2022-11-23T04:22:09.841Z,10.07
2022-11-23T04:24:38.315Z,10.35
2022-11-23T04:27:05.568Z,10.56
2022-11-23T04:29:32.697Z,10.61
2022-11-23T04:31:59.990Z,10.05
2022-11-23T04:34:26.706Z,8.40
2022-11-23T04:36:56.858Z,8.29
2022-11-23T04:39:23.882Z,8.09
2022-11-23T04:41:50.759Z,8.44
2022-11-23T04:44:17.400Z,8.99
2022-11-23T04:46:45.739Z,8.88
2022-11-23T04:49:12.669Z,9.20
2022-11-23T04:51:39.545Z,9.23
2022-11-23T04:54:06.603Z,8.84
2022-11-23T04:56:36.201Z,8.88
2022-11-23T04:59:03.001Z,9.24
2022-11-23T05:01:31.025Z,9.14
2022-11-23T05:03:58.759Z,9.20
2022-11-23T05:06:25.625Z,8.86
2022-11-23T05:08:52.467Z,8.62
2022-11-23T05:11:20.729Z,8.55
2022-11-23T05:13:48.206Z,8.83
2022-11-23T05:16:15.870Z,9.32
2022-11-23T05:18:42.925Z,9.28
2022-11-23T05:21:10.333Z,9.16
2022-11-23T05:23:51.451Z,9.59
2022-11-23T05:26:24.652Z,9.66
2022-11-23T05:32:14.645Z,9.99
2022-11-23T05:34:46.806Z,10.26
2022-11-23T05:37:14.156Z,10.09
2022-11-23T05:39:43.648Z,10.32
2022-11-23T05:42:14.995Z,10.07
2022-11-23T05:44:43.000Z,9.72
2022-11-23T05:47:10.249Z,9.30
2022-11-23T05:49:41.657Z,9.74
2022-11-23T05:52:12.851Z,9.86
2022-11-23T05:54:40.081Z,10.15
2022-11-23T05:57:07.239Z,10.22
2022-11-23T05:59:42.898Z,10.27
2022-11-23T06:02:10.918Z,10.22
2022-11-23T06:04:46.947Z,10.42
2022-11-23T06:22:22.266Z,10.27
2022-11-23T06:31:12.108Z,9.86
2022-11-23T06:36:28.771Z,9.50
2022-11-23T06:39:02.149Z,8.94
2022-11-23T06:44:23.964Z,8.76
2022-11-23T06:47:02.985Z,8.91
2022-11-23T06:49:33.721Z,8.53
2022-11-23T06:52:01.102Z,8.71
2022-11-23T06:54:40.897Z,9.24
2022-11-23T07:00:00.309Z,9.14
2022-11-23T07:02:33.872Z,8.51
2022-11-23T07:05:05.221Z,8.10
2022-11-23T07:07:45.542Z,8.46
2022-11-23T07:15:40.209Z,8.82
2022-11-23T07:30:50.372Z,9.71
2022-11-23T07:39:57.924Z,9.72
2022-11-23T07:42:57.919Z,8.65
2022-11-23T08:00:16.607Z,7.50
2022-11-23T08:03:19.210Z,7.10
2022-11-23T08:05:54.834Z,7.35
2022-11-23T08:08:42.354Z,7.44
2022-11-23T08:17:45.174Z,6.83
2022-11-23T08:20:13.362Z,7.69
2022-11-23T08:22:44.219Z,7.96
2022-11-23T08:25:15.072Z,8.26
2022-11-23T08:27:43.203Z,7.97
2022-11-23T08:30:14.638Z,7.63
2022-11-23T08:47:27.966Z,10.30
2022-11-23T08:50:08.859Z,10.29
2022-11-23T08:58:36.660Z,9.65
2022-11-23T09:01:10.602Z,9.57
2022-11-23T09:03:40.609Z,9.71
2022-11-23T09:12:15.926Z,9.56
2022-11-23T09:14:51.584Z,10.24
2022-11-23T09:17:37.973Z,9.86
2022-11-23T09:23:16.145Z,10.62
2022-11-23T09:28:28.676Z,9.32
2022-11-23T09:30:58.360Z,9.52
2022-11-23T09:36:15.132Z,9.91
2022-11-23T09:38:57.430Z,10.63
2022-11-23T09:44:10.197Z,11.48
2022-11-23T09:46:44.976Z,11.24
2022-11-23T09:49:24.749Z,11.68
2022-11-23T09:52:01.862Z,11.69
2022-11-23T09:54:32.507Z,11.55
2022-11-23T10:02:48.557Z,11.89
2022-11-23T10:05:29.121Z,11.20
2022-11-23T10:13:48.181Z,10.96
2022-11-23T10:16:16.743Z,11.32
2022-11-23T10:18:46.932Z,11.03
2022-11-23T10:21:21.586Z,10.81
2022-11-23T10:23:58.071Z,11.22
2022-11-23T10:32:18.161Z,11.53
2022-11-23T10:43:21.662Z,10.94
2022-11-23T10:54:42.999Z,10.85
2022-11-23T10:57:15.115Z,11.34
2022-11-23T11:02:39.211Z,11.30
2022-11-23T11:11:09.842Z,12.04
2022-11-23T11:26:14.885Z,11.97
2022-11-23T11:28:55.465Z,11.97
2022-11-23T11:37:40.276Z,11.84
2022-11-23T11:43:09.467Z,12.31
2022-11-23T11:54:09.489Z,12.96
2022-11-23T12:05:56.326Z,12.99
2022-11-23T12:23:48.229Z,13.10
2022-11-23T12:26:25.253Z,12.88
2022-11-23T12:28:57.122Z,13.38
2022-11-23T12:46:37.340Z,13.37
2022-11-23T12:52:01.472Z,13.02
2022-11-23T12:54:31.069Z,13.10
2022-11-23T19:14:31.410Z,8.35
2022-11-23T19:16:58.932Z,8.21
2022-11-23T19:19:25.468Z,8.33
2022-11-23T19:21:53.433Z,8.81
2022-11-23T19:43:30.471Z,9.07
2022-11-23T19:46:05.760Z,9.35
2022-11-23T19:52:10.254Z,9.27
2022-11-23T19:55:10.655Z,10.42
2022-11-23T19:57:38.420Z,10.58
2022-11-23T20:00:05.078Z,11.24
2022-11-23T20:02:32.417Z,11.23
2022-11-23T20:08:49.399Z,11.22
2022-11-23T20:17:20.465Z,10.65
2022-11-23T20:19:47.932Z,10.27
2022-11-23T20:22:14.793Z,9.67
2022-11-23T20:24:44.702Z,9.47
2022-11-23T20:37:04.716Z,11.31
2022-11-23T20:39:37.714Z,11.53
2022-11-23T20:42:07.183Z,11.23
